Time;durP1;ratioP1;P1;durP2;ratioP2;P2;SDS_P1;SDS_P2;PMS_P1;PMS_P2;Temp;Humidity;BMP_temperature;BMP_pressure;BME280_temperature;BME280_humidity;BME280_pressure;Samples;Min_cycle;Max_cycle;Signal;HPM_P1;HPM_P2
2023/06/07 00:00:16;;;;;;;0.20;0.20;;;11.20;99.90;;;;;;4834724;29;20482;-82
2023/06/07 00:02:42;;;;;;;0.20;0.20;;;11.30;99.90;;;;;;4849994;29;20410;-82
2023/06/07 00:05:09;;;;;;;0.20;0.20;;;11.20;99.90;;;;;;4837710;29;20072;-82
2023/06/07 00:07:35;;;;;;;0.10;0.10;;;11.50;99.90;;;;;;4838358;29;20053;-82
2023/06/07 00:10:05;;;;;;;0.20;0.20;;;11.20;99.90;;;;;;4848060;29;20049;-82
2023/06/07 00:12:31;;;;;;;0.20;0.20;;;11.20;99.90;;;;;;4835344;29;20053;-82
2023/06/07 00:14:59;;;;;;;0.10;0.10;;;11.20;99.90;;;;;;4850694;29;20566;-82
2023/06/07 00:17:27;;;;;;;0.20;0.20;;;11.10;99.90;;;;;;4836386;29;20059;-82
2023/06/07 00:19:53;;;;;;;0.20;0.20;;;11.10;99.90;;;;;;4833527;29;20050;-82
2023/06/07 00:22:19;;;;;;;0.20;0.20;;;11.20;99.90;;;;;;4834141;29;20582;-82
2023/06/07 00:24:45;;;;;;;0.10;0.10;;;11.20;99.90;;;;;;4834958;29;21246;-82
2023/06/07 00:27:11;;;;;;;0.10;0.10;;;11.10;99.90;;;;;;4855676;29;20049;-82
2023/06/07 00:29:36;;;;;;;0.20;0.20;;;11.10;99.90;;;;;;4851228;29;20049;-82
2023/06/07 00:32:02;;;;;;;0.20;0.20;;;11.10;99.90;;;;;;4837032;29;20418;-82
2023/06/07 00:34:28;;;;;;;0.10;0.10;;;11.10;99.90;;;;;;4839292;29;20045;-83
2023/06/07 00:36:54;;;;;;;0.20;0.20;;;11.10;99.90;;;;;;4858757;29;20405;-83
2023/06/07 00:39:22;;;;;;;0.20;0.20;;;11.10;99.90;;;;;;4854628;29;20475;-82
2023/06/07 00:41:48;;;;;;;0.20;0.20;;;11.10;99.90;;;;;;4837392;29;20045;-83
2023/06/07 00:44:13;;;;;;;0.15;0.15;;;11.10;99.90;;;;;;4852793;29;20057;-82
2023/06/07 00:46:40;;;;;;;0.20;0.20;;;11.10;99.90;;;;;;4841911;29;20053;-82
2023/06/07 00:49:06;;;;;;;0.10;0.10;;;11.10;99.90;;;;;;4837295;29;20498;-82
2023/06/07 00:51:32;;;;;;;0.20;0.20;;;11.00;99.90;;;;;;4857438;29;20284;-82
2023/06/07 00:54:00;;;;;;;0.10;0.10;;;11.50;99.90;;;;;;4859563;29;20046;-82
2023/06/07 00:56:27;;;;;;;0.20;0.20;;;11.00;99.90;;;;;;4841826;29;20140;-83
2023/06/07 00:58:53;;;;;;;0.20;0.20;;;11.00;99.90;;;;;;4857870;29;20179;-82
2023/06/07 01:01:19;;;;;;;0.20;0.20;;;11.00;99.90;;;;;;4839036;29;20080;-83
2023/06/07 01:03:45;;;;;;;0.20;0.20;;;11.00;99.90;;;;;;4841102;29;20387;-82
2023/06/07 01:06:13;;;;;;;0.20;0.20;;;10.30;99.90;;;;;;4856546;29;20145;-83
2023/06/07 01:08:39;;;;;;;4.88;1.13;;;11.00;99.90;;;;;;4859530;29;20050;-82
2023/06/07 01:11:06;;;;;;;0.10;0.10;;;11.00;99.90;;;;;;4849578;29;20045;-82
2023/06/07 01:13:32;;;;;;;0.20;0.20;;;11.00;99.90;;;;;;4853143;29;20120;-83
2023/06/07 01:15:59;;;;;;;0.20;0.20;;;11.00;99.90;;;;;;4842486;29;20473;-83
2023/06/07 01:18:25;;;;;;;0.20;0.20;;;11.00;99.90;;;;;;4836640;29;20045;-83
2023/06/07 01:20:54;;;;;;;0.20;0.20;;;11.00;99.90;;;;;;4856846;29;20041;-82
2023/06/07 01:23:33;;;;;;;0.20;0.20;;;10.90;99.90;;;;;;4842521;29;20117;-83
2023/06/07 01:26:00;;;;;;;0.20;0.20;;;10.90;99.90;;;;;;4841132;29;20061;-83
2023/06/07 01:28:28;;;;;;;0.20;0.20;;;10.90;99.90;;;;;;4854556;29;20383;-83
2023/06/07 01:30:55;;;;;;;0.20;0.20;;;10.90;99.90;;;;;;4840197;29;20375;-82
2023/06/07 01:33:21;;;;;;;0.20;0.20;;;11.00;99.90;;;;;;4856679;29;20097;-83
2023/06/07 01:35:50;;;;;;;0.20;0.20;;;10.90;99.90;;;;;;4856588;29;20049;-82
2023/06/07 01:38:19;;;;;;;0.20;0.20;;;11.00;99.90;;;;;;4841286;29;20494;-82
2023/06/07 01:40:45;;;;;;;0.10;0.10;;;10.90;99.90;;;;;;4855172;29;20078;-83
2023/06/07 01:43:12;;;;;;;0.17;0.17;;;10.90;99.90;;;;;;4852388;29;20406;-82
2023/06/07 01:45:38;;;;;;;0.20;0.20;;;11.00;99.90;;;;;;4839248;29;20053;-82
2023/06/07 01:48:04;;;;;;;0.20;0.20;;;11.00;99.90;;;;;;4839769;29;20053;-82
2023/06/07 01:50:30;;;;;;;0.20;0.20;;;10.90;99.90;;;;;;4838845;29;20082;-83
2023/06/07 01:52:56;;;;;;;0.20;0.20;;;10.90;99.90;;;;;;4840210;29;20391;-82
2023/06/07 01:55:23;;;;;;;0.10;0.10;;;10.90;99.90;;;;;;4837808;29;20064;-83
2023/06/07 01:58:04;;;;;;;0.20;0.20;;;11.00;99.90;;;;;;4857838;29;20104;-83
2023/06/07 02:00:33;;;;;;;0.20;0.20;;;11.00;99.90;;;;;;4853481;29;20042;-84
2023/06/07 02:03:16;;;;;;;0.20;0.20;;;11.00;99.90;;;;;;4844330;29;20344;-83
2023/06/07 02:05:47;;;;;;;0.10;0.10;;;11.00;99.90;;;;;;4853146;29;20053;-83
2023/06/07 02:08:19;;;;;;;0.20;0.20;;;11.10;99.90;;;;;;4857079;29;20046;-83
2023/06/07 02:10:46;;;;;;;0.20;0.20;;;11.00;99.90;;;;;;4836592;29;20105;-83
2023/06/07 02:13:12;;;;;;;0.20;0.20;;;11.00;99.90;;;;;;4836843;29;20049;-82
2023/06/07 02:15:38;;;;;;;0.20;0.20;;;11.10;99.90;;;;;;4840459;29;20091;-82
2023/06/07 02:18:04;;;;;;;0.20;0.20;;;11.10;99.90;;;;;;4854495;29;20077;-82
2023/06/07 02:20:33;;;;;;;0.20;0.20;;;11.10;99.90;;;;;;4837047;29;20060;-83
2023/06/07 02:22:59;;;;;;;0.10;0.10;;;11.10;99.90;;;;;;4840468;29;20045;-83
2023/06/07 02:25:25;;;;;;;0.20;0.20;;;11.20;99.90;;;;;;4841482;29;20478;-83
2023/06/07 02:27:51;;;;;;;0.10;0.10;;;11.10;99.90;;;;;;4838429;29;20536;-83
2023/06/07 02:30:17;;;;;;;0.20;0.20;;;11.40;99.90;;;;;;4839335;29;20048;-82
2023/06/07 02:32:48;;;;;;;0.20;0.20;;;11.20;99.90;;;;;;4840407;29;20053;-83
2023/06/07 02:35:16;;;;;;;0.20;0.20;;;11.20;99.90;;;;;;4836513;29;20052;-83
2023/06/07 02:37:42;;;;;;;0.20;0.20;;;11.20;99.90;;;;;;4840527;29;20045;-83
2023/06/07 02:40:10;;;;;;;0.10;0.10;;;11.20;99.90;;;;;;4855176;29;20101;-82
2023/06/07 02:42:37;;;;;;;0.20;0.20;;;11.20;99.90;;;;;;4850186;29;20549;-83
2023/06/07 02:45:03;;;;;;;0.10;0.10;;;11.30;99.90;;;;;;4838816;29;20057;-83
2023/06/07 02:47:30;;;;;;;0.20;0.20;;;11.30;99.90;;;;;;4856285;29;20521;-83
2023/06/07 02:49:57;;;;;;;0.20;0.20;;;11.30;99.90;;;;;;4855945;29;20041;-83
2023/06/07 02:52:25;;;;;;;0.20;0.20;;;11.30;99.90;;;;;;4856556;29;20053;-83
2023/06/07 02:54:51;;;;;;;0.20;0.20;;;11.30;99.90;;;;;;4855791;29;20521;-82
2023/06/07 02:57:16;;;;;;;0.10;0.10;;;11.40;99.90;;;;;;4857599;29;20049;-83
2023/06/07 02:59:42;;;;;;;0.10;0.10;;;11.40;99.90;;;;;;4838784;29;20049;-83
2023/06/07 03:02:08;;;;;;;0.20;0.20;;;11.40;99.90;;;;;;4855575;29;20113;-83
2023/06/07 03:04:33;;;;;;;0.20;0.20;;;11.40;99.90;;;;;;4838092;29;20049;-83
2023/06/07 03:07:00;;;;;;;0.20;0.20;;;11.40;99.90;;;;;;4850351;29;20050;-83
2023/06/07 03:09:25;;;;;;;0.20;0.20;;;11.40;99.90;;;;;;4834777;29;20510;-82
2023/06/07 03:11:51;;;;;;;0.10;0.10;;;11.40;99.90;;;;;;4849408;29;20066;-83
2023/06/07 03:14:19;;;;;;;0.10;0.10;;;11.50;99.90;;;;;;4851880;29;20034;-83
2023/06/07 03:16:45;;;;;;;0.10;0.10;;;11.50;99.90;;;;;;4850212;29;20049;-84
2023/06/07 03:19:11;;;;;;;0.20;0.20;;;11.50;99.90;;;;;;4851543;29;20060;-83
2023/06/07 03:21:44;;;;;;;0.20;0.20;;;11.50;99.90;;;;;;4830461;29;20053;-83
2023/06/07 03:24:14;;;;;;;0.10;0.10;;;11.60;99.90;;;;;;4853296;29;20049;-83
2023/06/07 03:26:40;;;;;;;0.17;0.17;;;11.60;99.90;;;;;;4839741;29;20045;-83
2023/06/07 03:29:09;;;;;;;0.10;0.10;;;11.60;99.90;;;;;;4857120;29;20044;-83
2023/06/07 03:31:36;;;;;;;0.10;0.10;;;11.60;99.90;;;;;;4840155;29;20363;-82
2023/06/07 03:34:01;;;;;;;0.10;0.10;;;11.60;99.90;;;;;;4837343;29;20049;-83
2023/06/07 03:36:29;;;;;;;0.10;0.10;;;11.70;99.90;;;;;;4839029;29;20045;-83
2023/06/07 03:38:57;;;;;;;0.20;0.20;;;11.60;99.90;;;;;;4857703;29;20049;-82
2023/06/07 03:41:23;;;;;;;0.20;0.20;;;11.70;99.90;;;;;;4838171;29;20049;-82
2023/06/07 03:43:49;;;;;;;0.17;0.17;;;11.70;99.90;;;;;;4835453;29;20069;-83
2023/06/07 03:46:15;;;;;;;0.15;0.15;;;11.70;99.90;;;;;;4840051;29;20045;-82
2023/06/07 03:48:40;;;;;;;0.20;0.20;;;11.80;99.90;;;;;;4838582;29;20376;-82
2023/06/07 03:51:06;;;;;;;0.20;0.20;;;11.80;99.90;;;;;;4840001;29;20060;-83
2023/06/07 03:53:32;;;;;;;0.20;0.20;;;11.80;99.90;;;;;;4839813;29;20046;-82
2023/06/07 03:55:58;;;;;;;0.20;0.20;;;11.80;99.90;;;;;;4832008;29;20042;-82
2023/06/07 03:58:24;;;;;;;0.20;0.20;;;11.80;99.90;;;;;;4835870;29;20506;-82
2023/06/07 04:00:53;;;;;;;0.10;0.10;;;11.90;99.90;;;;;;4838479;29;20410;-82
2023/06/07 04:03:24;;;;;;;0.20;0.20;;;11.90;99.90;;;;;;4854947;29;20398;-82
2023/06/07 04:05:53;;;;;;;0.17;0.17;;;11.90;99.90;;;;;;4846349;29;20050;-82
2023/06/07 04:08:19;;;;;;;0.10;0.10;;;11.90;99.90;;;;;;4843069;29;20042;-82
2023/06/07 04:10:45;;;;;;;0.15;0.15;;;12.00;99.90;;;;;;4842168;29;20053;-82
2023/06/07 04:13:11;;;;;;;0.20;0.20;;;12.00;99.90;;;;;;4834627;29;20102;-83
2023/06/07 04:15:38;;;;;;;0.10;0.10;;;12.00;99.90;;;;;;4852358;29;20053;-82
2023/06/07 04:18:04;;;;;;;0.10;0.10;;;12.00;99.90;;;;;;4858844;29;20053;-82
2023/06/07 04:20:30;;;;;;;0.20;0.20;;;12.10;99.90;;;;;;4835325;29;20121;-82
2023/06/07 04:22:55;;;;;;;0.10;0.10;;;12.10;99.90;;;;;;4841464;29;20089;-81
2023/06/07 04:25:24;;;;;;;0.20;0.20;;;12.10;99.90;;;;;;4842307;29;20128;-82
2023/06/07 04:27:51;;;;;;;0.10;0.10;;;12.10;99.90;;;;;;4853070;29;20042;-82
2023/06/07 04:30:20;;;;;;;0.10;0.10;;;12.10;99.90;;;;;;4858302;29;20541;-82
2023/06/07 04:32:46;;;;;;;0.20;0.20;;;12.20;99.90;;;;;;4851907;29;20049;-87
2023/06/07 04:35:14;;;;;;;0.15;0.15;;;12.20;99.90;;;;;;4837234;29;20053;-82
2023/06/07 04:37:45;;;;;;;0.20;0.20;;;12.20;99.90;;;;;;4850897;29;20048;-82
2023/06/07 04:40:13;;;;;;;0.20;0.20;;;12.20;99.90;;;;;;4849131;29;20057;-82
2023/06/07 04:42:40;;;;;;;0.10;0.10;;;12.20;99.90;;;;;;4838479;29;20173;-83
2023/06/07 04:45:07;;;;;;;0.10;0.10;;;12.30;99.90;;;;;;4852918;29;20053;-82
2023/06/07 04:47:33;;;;;;;0.20;0.20;;;12.30;99.90;;;;;;4853610;29;20045;-82
2023/06/07 04:50:00;;;;;;;0.10;0.10;;;12.30;99.90;;;;;;4844438;29;20077;-82
2023/06/07 04:52:26;;;;;;;0.20;0.20;;;12.40;99.90;;;;;;4838080;29;20052;-82
2023/06/07 04:54:53;;;;;;;0.10;0.10;;;12.30;99.90;;;;;;4838606;29;20477;-82
2023/06/07 04:57:22;;;;;;;0.20;0.20;;;12.60;99.90;;;;;;4840812;29;20049;-84
2023/06/07 04:59:48;;;;;;;0.10;0.10;;;12.40;99.90;;;;;;4838847;29;20053;-82
2023/06/07 05:02:15;;;;;;;0.20;0.20;;;12.40;99.90;;;;;;4838489;29;20041;-82
2023/06/07 05:04:41;;;;;;;0.20;0.20;;;12.40;99.90;;;;;;4838410;29;20045;-84
2023/06/07 05:07:07;;;;;;;0.20;0.20;;;12.50;99.90;;;;;;4836189;29;20045;-84
2023/06/07 05:09:33;;;;;;;0.20;0.20;;;12.50;99.90;;;;;;4841679;29;20046;-82
2023/06/07 05:11:58;;;;;;;0.20;0.20;;;12.50;99.90;;;;;;4833986;29;20438;-83
2023/06/07 05:14:24;;;;;;;0.10;0.10;;;12.50;99.90;;;;;;4839226;29;20512;-83
2023/06/07 05:16:51;;;;;;;0.20;0.20;;;12.50;99.90;;;;;;4841071;29;20046;-84
2023/06/07 05:19:17;;;;;;;0.20;0.20;;;12.50;99.90;;;;;;4838697;29;20053;-82
2023/06/07 05:21:42;;;;;;;0.20;0.20;;;12.60;99.90;;;;;;4858016;29;20137;-83
2023/06/07 05:24:09;;;;;;;0.20;0.20;;;12.60;99.90;;;;;;4838750;29;20128;-82
2023/06/07 05:26:35;;;;;;;0.10;0.10;;;12.60;99.90;;;;;;4838744;29;20045;-82
2023/06/07 05:29:00;;;;;;;0.20;0.20;;;12.60;99.90;;;;;;4837910;29;20060;-82
2023/06/07 05:31:26;;;;;;;0.20;0.20;;;12.60;99.90;;;;;;4839977;29;20041;-82
2023/06/07 05:33:52;;;;;;;0.20;0.20;;;12.70;99.90;;;;;;4852295;29;20049;-83
2023/06/07 05:36:18;;;;;;;0.20;0.20;;;12.70;99.90;;;;;;4841168;29;20057;-82
2023/06/07 05:38:44;;;;;;;0.20;0.20;;;12.70;99.90;;;;;;4838655;29;20048;-84
2023/06/07 05:41:10;;;;;;;0.38;0.20;;;12.70;99.90;;;;;;4837407;29;20482;-82
2023/06/07 05:43:36;;;;;;;0.20;0.20;;;12.70;99.90;;;;;;4837178;29;20430;-82
2023/06/07 05:46:01;;;;;;;0.10;0.10;;;12.80;99.90;;;;;;4856526;29;20057;-82
2023/06/07 05:48:27;;;;;;;0.20;0.20;;;12.80;99.90;;;;;;4837273;29;20045;-82
2023/06/07 05:50:54;;;;;;;0.20;0.20;;;12.90;99.90;;;;;;4840643;29;20071;-84
2023/06/07 05:53:20;;;;;;;0.10;0.10;;;12.90;99.90;;;;;;4858555;29;20059;-83
2023/06/07 05:55:47;;;;;;;0.20;0.20;;;12.80;99.90;;;;;;4850357;29;20144;-76
2023/06/07 05:58:13;;;;;;;0.20;0.20;;;12.90;99.90;;;;;;4855200;29;20045;-76
2023/06/07 06:00:40;;;;;;;0.10;0.10;;;12.90;99.90;;;;;;4835143;29;20053;-76
2023/06/07 06:03:06;;;;;;;0.10;0.10;;;13.00;99.90;;;;;;4844873;29;20052;-76
2023/06/07 06:05:32;;;;;;;0.20;0.20;;;13.00;99.90;;;;;;4835776;29;20041;-76
2023/06/07 06:07:58;;;;;;;0.20;0.20;;;13.00;99.90;;;;;;4844600;29;20045;-76
2023/06/07 06:10:25;;;;;;;0.13;0.13;;;13.10;99.90;;;;;;4847565;29;20110;-76
2023/06/07 06:12:51;;;;;;;0.17;0.17;;;13.10;99.90;;;;;;4836754;29;20106;-75
2023/06/07 06:15:17;;;;;;;0.10;0.10;;;13.20;99.90;;;;;;4853168;29;20552;-76
2023/06/07 06:17:42;;;;;;;0.20;0.20;;;13.20;99.90;;;;;;4838952;29;20049;-75
2023/06/07 06:20:08;;;;;;;0.20;0.20;;;13.30;99.90;;;;;;4841468;29;20056;-75
2023/06/07 06:22:34;;;;;;;0.15;0.15;;;13.30;99.90;;;;;;4845971;29;20132;-75
2023/06/07 06:25:00;;;;;;;0.17;0.17;;;13.30;99.90;;;;;;4860590;29;20577;-75
2023/06/07 06:27:26;;;;;;;0.20;0.20;;;13.40;99.90;;;;;;4849340;29;20406;-75
2023/06/07 06:29:52;;;;;;;0.20;0.20;;;13.40;99.90;;;;;;4841017;29;20376;-75
2023/06/07 06:32:17;;;;;;;0.20;0.20;;;13.50;99.90;;;;;;4857904;29;20050;-76
2023/06/07 06:34:44;;;;;;;0.20;0.20;;;13.60;99.90;;;;;;4840614;29;20053;-75
2023/06/07 06:37:10;;;;;;;0.15;0.15;;;13.60;99.90;;;;;;4857068;29;20057;-75
2023/06/07 06:39:35;;;;;;;0.20;0.20;;;13.70;99.90;;;;;;4841484;29;20426;-75
2023/06/07 06:42:01;;;;;;;0.10;0.10;;;13.70;99.90;;;;;;4854034;29;20069;-75
2023/06/07 06:44:28;;;;;;;0.20;0.20;;;13.80;99.90;;;;;;4857076;29;20057;-75
2023/06/07 06:46:54;;;;;;;0.10;0.10;;;13.80;99.90;;;;;;4856887;29;20409;-75
2023/06/07 06:49:20;;;;;;;0.20;0.20;;;13.90;99.90;;;;;;4837725;29;20125;-75
2023/06/07 06:51:46;;;;;;;0.20;0.20;;;13.80;99.90;;;;;;4856238;29;20642;-75
2023/06/07 06:54:12;;;;;;;0.20;0.20;;;13.90;99.90;;;;;;4858127;29;20061;-75
2023/06/07 06:56:38;;;;;;;0.10;0.10;;;13.80;99.90;;;;;;4858300;29;20041;-76
2023/06/07 06:59:03;;;;;;;0.20;0.20;;;13.80;99.90;;;;;;4850222;29;20053;-75
2023/06/07 07:01:46;;;;;;;0.17;0.17;;;13.90;99.90;;;;;;4857805;29;20554;-75
2023/06/07 07:04:13;;;;;;;0.10;0.10;;;14.00;99.90;;;;;;4835706;29;20045;-75
2023/06/07 07:06:40;;;;;;;0.20;0.20;;;13.90;99.90;;;;;;4839089;29;20101;-75
2023/06/07 07:09:07;;;;;;;0.20;0.20;;;14.00;99.90;;;;;;4840941;29;20053;-75
2023/06/07 07:11:33;;;;;;;0.20;0.20;;;14.00;99.90;;;;;;4857192;29;20045;-75
2023/06/07 07:13:59;;;;;;;0.20;0.20;;;14.10;99.90;;;;;;4838715;29;20056;-76
2023/06/07 07:16:24;;;;;;;0.17;0.17;;;14.00;99.90;;;;;;4835232;29;20053;-77
2023/06/07 07:18:50;;;;;;;0.17;0.17;;;14.00;99.90;;;;;;4836651;29;20064;-75
2023/06/07 07:21:16;;;;;;;0.20;0.20;;;13.90;99.90;;;;;;4841200;29;20121;-75
2023/06/07 07:23:41;;;;;;;0.20;0.20;;;13.90;99.90;;;;;;4838556;29;20418;-75
2023/06/07 07:26:07;;;;;;;0.20;0.20;;;14.00;99.90;;;;;;4839934;29;20061;-75
2023/06/07 07:28:33;;;;;;;0.20;0.20;;;14.00;99.90;;;;;;4840676;29;20049;-75
2023/06/07 07:30:59;;;;;;;0.20;0.20;;;14.00;99.90;;;;;;4840402;29;20440;-75
2023/06/07 07:33:24;;;;;;;0.10;0.10;;;14.10;99.90;;;;;;4852757;29;20061;-75
2023/06/07 07:35:51;;;;;;;0.20;0.20;;;14.30;99.90;;;;;;4854774;29;20049;-75
2023/06/07 07:38:16;;;;;;;0.20;0.20;;;14.40;99.90;;;;;;4860624;29;20045;-75
2023/06/07 07:40:45;;;;;;;0.20;0.20;;;14.50;99.90;;;;;;4857131;29;20084;-76
2023/06/07 07:43:11;;;;;;;0.20;0.20;;;14.60;99.90;;;;;;4872399;29;20049;-75
2023/06/07 07:45:37;;;;;;;0.20;0.20;;;14.70;99.90;;;;;;4860696;29;20418;-75
2023/06/07 07:48:03;;;;;;;0.20;0.20;;;14.80;99.90;;;;;;4842043;29;20054;-75
2023/06/07 07:50:29;;;;;;;0.20;0.20;;;14.90;99.90;;;;;;4861207;29;20046;-75
2023/06/07 07:52:56;;;;;;;0.20;0.20;;;14.90;99.90;;;;;;4836522;29;20132;-74
2023/06/07 07:55:23;;;;;;;0.13;0.13;;;15.00;99.90;;;;;;4873872;29;20049;-75
2023/06/07 07:57:49;;;;;;;0.20;0.20;;;15.00;99.90;;;;;;4846272;29;20530;-75
2023/06/07 08:00:16;;;;;;;0.13;0.13;;;15.10;99.90;;;;;;4858732;29;20057;-75
2023/06/07 08:02:42;;;;;;;0.20;0.20;;;15.10;99.90;;;;;;4854999;29;20060;-76
2023/06/07 08:05:08;;;;;;;0.20;0.20;;;15.20;99.90;;;;;;4840812;29;20049;-76
2023/06/07 08:07:34;;;;;;;0.20;0.20;;;15.20;99.90;;;;;;4867470;29;20401;-76
2023/06/07 08:10:00;;;;;;;0.20;0.20;;;15.20;99.90;;;;;;4879569;29;20081;-76
2023/06/07 08:12:26;;;;;;;0.20;0.20;;;15.10;99.90;;;;;;4864643;29;20046;-75
2023/06/07 08:14:52;;;;;;;0.20;0.20;;;15.10;99.90;;;;;;4860140;29;20053;-75
2023/06/07 08:17:19;;;;;;;0.10;0.10;;;15.10;99.90;;;;;;4857254;29;20401;-76
2023/06/07 08:19:46;;;;;;;0.20;0.20;;;15.10;99.90;;;;;;4862345;29;20518;-75
2023/06/07 08:22:12;;;;;;;0.20;0.20;;;15.10;99.90;;;;;;4842912;29;20046;-75
2023/06/07 08:24:37;;;;;;;0.20;0.20;;;15.10;99.90;;;;;;4875263;29;20055;-75
2023/06/07 08:27:07;;;;;;;0.20;0.20;;;15.10;99.90;;;;;;4856494;29;20106;-75
2023/06/07 08:29:33;;;;;;;0.20;0.20;;;15.00;99.90;;;;;;4840882;29;20499;-75
2023/06/07 08:31:59;;;;;;;0.10;0.10;;;15.00;99.90;;;;;;4839143;29;20144;-76
2023/06/07 08:34:28;;;;;;;0.20;0.20;;;15.00;99.90;;;;;;4827514;29;20502;-75
2023/06/07 08:36:54;;;;;;;0.10;0.10;;;15.00;99.90;;;;;;4842969;29;20084;-75
2023/06/07 08:39:21;;;;;;;0.17;0.17;;;15.00;99.90;;;;;;4857098;29;20033;-75
2023/06/07 08:41:46;;;;;;;0.10;0.10;;;15.00;99.90;;;;;;4857972;29;20061;-76
2023/06/07 08:44:12;;;;;;;0.20;0.20;;;15.10;99.90;;;;;;4840350;29;20444;-76
2023/06/07 08:46:39;;;;;;;0.20;0.20;;;15.10;99.90;;;;;;4831923;29;20096;-77
2023/06/07 08:49:05;;;;;;;0.20;0.20;;;15.10;99.90;;;;;;4841675;29;20565;-77
2023/06/07 08:51:36;;;;;;;0.20;0.20;;;15.10;99.90;;;;;;4842584;29;20136;-76
2023/06/07 08:54:03;;;;;;;0.20;0.20;;;15.20;99.90;;;;;;4842707;29;20393;-76
2023/06/07 08:56:31;;;;;;;0.15;0.15;;;15.20;99.90;;;;;;4852905;29;20507;-76
2023/06/07 08:58:57;;;;;;;0.10;0.10;;;15.20;99.90;;;;;;4852204;29;20045;-75
2023/06/07 09:01:23;;;;;;;0.10;0.10;;;15.30;99.90;;;;;;4850618;29;20046;-76
2023/06/07 09:03:51;;;;;;;0.20;0.20;;;15.30;99.90;;;;;;4831957;29;20317;-75
2023/06/07 09:06:18;;;;;;;0.20;0.20;;;15.30;99.90;;;;;;4834169;29;20057;-76
2023/06/07 09:08:44;;;;;;;0.20;0.20;;;15.30;99.90;;;;;;4843053;29;20110;-75
2023/06/07 09:11:09;;;;;;;0.10;0.10;;;15.40;99.90;;;;;;4856710;29;20045;-76
2023/06/07 09:13:36;;;;;;;0.20;0.20;;;15.40;99.90;;;;;;4842401;29;20051;-76
2023/06/07 09:16:02;;;;;;;0.20;0.20;;;15.40;99.90;;;;;;4842448;29;20088;-76
2023/06/07 09:18:55;;;;;;;0.20;0.20;;;15.50;99.90;;;;;;4853586;29;20077;-76
2023/06/07 09:21:22;;;;;;;0.20;0.20;;;15.50;99.90;;;;;;4837231;29;20046;-76
2023/06/07 09:23:49;;;;;;;0.20;0.20;;;15.60;99.90;;;;;;4858081;29;20041;-75
2023/06/07 09:26:20;;;;;;;0.20;0.20;;;15.60;99.90;;;;;;4857490;29;20121;-76
2023/06/07 09:28:46;;;;;;;0.20;0.20;;;15.70;99.90;;;;;;4842322;29;20525;-76
2023/06/07 09:31:13;;;;;;;0.20;0.20;;;15.70;99.90;;;;;;4841775;29;20058;-76
2023/06/07 09:33:39;;;;;;;0.20;0.20;;;15.70;99.90;;;;;;4840343;29;20045;-76
2023/06/07 09:36:12;;;;;;;0.20;0.20;;;15.80;99.90;;;;;;4842542;29;20084;-76
2023/06/07 09:38:38;;;;;;;0.20;0.20;;;15.90;99.90;;;;;;4858445;29;20045;-76
2023/06/07 09:41:06;;;;;;;0.20;0.20;;;15.90;99.90;;;;;;4857414;29;20060;-77
2023/06/07 09:43:46;;;;;;;0.20;0.20;;;15.90;99.90;;;;;;4841860;29;20065;-76
2023/06/07 09:46:13;;;;;;;0.20;0.20;;;16.00;99.90;;;;;;4857653;29;20053;-76
2023/06/07 09:48:48;;;;;;;0.20;0.20;;;16.00;99.90;;;;;;4841405;29;20047;-77
2023/06/07 09:51:15;;;;;;;0.20;0.20;;;16.00;99.90;;;;;;4857645;29;20049;-75
2023/06/07 09:53:52;;;;;;;0.20;0.20;;;16.10;99.90;;;;;;4858308;29;20060;-76
2023/06/07 09:56:21;;;;;;;0.20;0.20;;;16.00;99.90;;;;;;4840727;29;20065;-76
2023/06/07 09:59:07;;;;;;;0.10;0.10;;;16.10;99.90;;;;;;4857036;29;20060;-76
2023/06/07 10:01:35;;;;;;;0.20;0.20;;;16.20;99.90;;;;;;4857449;29;20577;-77
2023/06/07 10:04:02;;;;;;;0.20;0.20;;;16.20;99.90;;;;;;4856432;29;20065;-76
2023/06/07 10:06:32;;;;;;;0.20;0.20;;;16.20;99.90;;;;;;4855067;29;20124;-76
2023/06/07 10:09:03;;;;;;;0.13;0.13;;;16.20;99.90;;;;;;4839522;29;20104;-78
2023/06/07 10:11:34;;;;;;;0.15;0.15;;;16.30;99.90;;;;;;4859433;29;20046;-79
2023/06/07 10:14:11;;;;;;;0.20;0.20;;;16.30;99.90;;;;;;4859622;29;20375;-77
2023/06/07 10:16:45;;;;;;;0.20;0.20;;;16.30;99.90;;;;;;4840564;29;20056;-77
2023/06/07 10:19:23;;;;;;;0.20;0.20;;;16.30;99.90;;;;;;4854497;29;20057;-77
2023/06/07 10:21:52;;;;;;;0.10;0.10;;;16.40;99.90;;;;;;4839555;29;20060;-77
2023/06/07 10:24:24;;;;;;;0.20;0.20;;;16.40;99.90;;;;;;4839492;29;20109;-77
2023/06/07 10:27:13;;;;;;;0.10;0.10;;;16.50;99.90;;;;;;4841096;29;20057;-76
2023/06/07 10:29:50;;;;;;;0.17;0.17;;;16.50;99.90;;;;;;4840582;29;20045;-78
2023/06/07 10:32:29;;;;;;;0.20;0.20;;;16.60;99.90;;;;;;4858213;29;20053;-77
2023/06/07 10:34:55;;;;;;;0.20;0.20;;;16.70;99.90;;;;;;4860163;29;20132;-77
2023/06/07 10:37:21;;;;;;;0.20;0.20;;;16.70;99.90;;;;;;4840461;29;20074;-78
2023/06/07 10:39:48;;;;;;;0.20;0.20;;;16.80;99.90;;;;;;4840050;29;20418;-77
2023/06/07 10:42:16;;;;;;;0.20;0.20;;;16.80;99.90;;;;;;4840719;29;20057;-77
2023/06/07 10:44:42;;;;;;;0.20;0.20;;;16.80;99.90;;;;;;4840167;29;20070;-76
2023/06/07 10:47:27;;;;;;;0.15;0.15;;;16.90;99.90;;;;;;4850903;29;20057;-77
2023/06/07 10:49:53;;;;;;;0.20;0.20;;;16.90;99.90;;;;;;4838139;29;20053;-76
2023/06/07 10:52:20;;;;;;;0.20;0.20;;;16.90;99.90;;;;;;4841720;29;20128;-76
2023/06/07 10:54:46;;;;;;;0.20;0.20;;;17.00;99.90;;;;;;4840505;29;20053;-77
2023/06/07 10:57:12;;;;;;;0.20;0.20;;;17.00;99.90;;;;;;4855957;29;20049;-75
2023/06/07 10:59:39;;;;;;;0.20;0.20;;;17.10;99.90;;;;;;4840269;29;20081;-76
2023/06/07 11:02:28;;;;;;;0.20;0.20;;;17.20;99.90;;;;;;4841222;29;20593;-76
2023/06/07 11:05:03;;;;;;;0.20;0.20;;;17.20;99.90;;;;;;4849500;29;20054;-76
2023/06/07 11:07:35;;;;;;;0.10;0.10;;;17.30;99.90;;;;;;4828445;29;20053;-75
2023/06/07 11:10:09;;;;;;;0.20;0.20;;;17.30;99.90;;;;;;4855834;29;20209;-76
2023/06/07 11:12:35;;;;;;;0.20;0.20;;;17.30;99.90;;;;;;4839554;29;20124;-76
2023/06/07 11:15:24;;;;;;;0.20;0.20;;;17.40;99.90;;;;;;4839681;29;20170;-76
2023/06/07 11:17:53;;;;;;;0.20;0.20;;;17.40;99.90;;;;;;4839161;29;20046;-76
2023/06/07 11:20:40;;;;;;;0.20;0.20;;;17.50;99.90;;;;;;4851991;29;20053;-75
2023/06/07 11:23:22;;;;;;;0.20;0.20;;;17.60;99.90;;;;;;4841836;29;20065;-75
2023/06/07 11:25:53;;;;;;;0.20;0.20;;;17.60;99.90;;;;;;4853697;29;20046;-76
2023/06/07 11:28:23;;;;;;;;;;;17.70;99.90;;;;;;4841131;29;20105;-76
2023/06/07 11:30:50;;;;;;;0.20;0.20;;;17.80;99.90;;;;;;4856628;29;19928;-75
2023/06/07 11:33:16;;;;;;;0.20;0.20;;;17.90;99.90;;;;;;4837496;29;20604;-76
2023/06/07 11:35:42;;;;;;;0.10;0.10;;;18.00;99.90;;;;;;4840075;29;20197;-76
2023/06/07 11:38:09;;;;;;;0.20;0.20;;;18.10;99.90;;;;;;4826454;29;20546;-76
2023/06/07 11:40:35;;;;;;;0.20;0.20;;;18.20;99.90;;;;;;4853437;29;20054;-76
2023/06/07 11:43:02;;;;;;;0.20;0.20;;;18.20;99.90;;;;;;4840371;29;20068;-77
2023/06/07 11:45:28;;;;;;;0.20;0.20;;;18.30;99.90;;;;;;4837804;29;20089;-76
2023/06/07 11:48:00;;;;;;;0.20;0.20;;;18.40;99.90;;;;;;4854837;29;20783;-76
2023/06/07 11:50:26;;;;;;;0.20;0.20;;;18.40;99.90;;;;;;4839094;29;20057;-75
2023/06/07 11:52:55;;;;;;;0.20;0.20;;;18.50;99.90;;;;;;4855623;29;20496;-77
2023/06/07 11:55:21;;;;;;;0.15;0.15;;;18.60;99.90;;;;;;4857615;29;20049;-76
2023/06/07 11:57:53;;;;;;;0.20;0.20;;;18.60;99.90;;;;;;4838594;29;20048;-77
2023/06/07 12:00:21;;;;;;;0.20;0.20;;;18.70;99.90;;;;;;4854997;29;20639;-77
2023/06/07 12:02:47;;;;;;;0.20;0.20;;;18.70;99.90;;;;;;4839220;29;20060;-76
2023/06/07 12:05:13;;;;;;;0.20;0.20;;;18.70;99.80;;;;;;4840326;29;20133;-76
2023/06/07 12:07:40;;;;;;;0.20;0.20;;;18.70;99.90;;;;;;4838749;29;20074;-77
2023/06/07 12:10:07;;;;;;;0.20;0.20;;;18.80;99.80;;;;;;4838897;29;20057;-77
2023/06/07 12:12:36;;;;;;;0.20;0.20;;;18.90;99.70;;;;;;4840218;29;20137;-77
2023/06/07 12:15:04;;;;;;;0.20;0.20;;;18.90;99.90;;;;;;4850927;29;20340;-77
2023/06/07 12:17:35;;;;;;;0.20;0.20;;;18.90;99.90;;;;;;4831703;29;20049;-82
2023/06/07 12:20:08;;;;;;;0.20;0.20;;;19.00;99.80;;;;;;4833835;29;20053;-82
2023/06/07 12:22:33;;;;;;;0.20;0.20;;;19.00;99.70;;;;;;4847406;29;20053;-83
2023/06/07 12:25:10;;;;;;;0.20;0.20;;;19.10;99.70;;;;;;4839823;29;20132;-81
2023/06/07 12:27:39;;;;;;;0.20;0.20;;;19.20;99.50;;;;;;4837617;29;20054;-82
2023/06/07 12:30:08;;;;;;;0.20;0.20;;;19.30;99.60;;;;;;4841304;29;20049;-80
2023/06/07 12:32:34;;;;;;;0.20;0.20;;;19.30;99.50;;;;;;4833679;29;20097;-82
2023/06/07 12:35:01;;;;;;;0.20;0.20;;;19.40;99.80;;;;;;4856975;29;20480;-83
2023/06/07 12:37:27;;;;;;;0.20;0.20;;;19.50;99.40;;;;;;4843345;29;20052;-84
2023/06/07 12:39:53;;;;;;;0.20;0.20;;;19.50;99.00;;;;;;4861534;29;20053;-82
2023/06/07 12:42:19;;;;;;;0.20;0.20;;;19.60;99.10;;;;;;4860268;29;20089;-82
2023/06/07 12:44:45;;;;;;;0.20;0.20;;;19.60;99.20;;;;;;4843363;29;20426;-81
2023/06/07 12:47:10;;;;;;;0.20;0.20;;;19.70;99.00;;;;;;4836924;29;20062;-81
2023/06/07 12:49:36;;;;;;;0.43;0.43;;;19.70;99.00;;;;;;4841510;29;20069;-83